Time;durP1;ratioP1;P1;durP2;ratioP2;P2;SDS_P1;SDS_P2;PMS_P1;PMS_P2;Temp;Humidity;BMP_temperature;BMP_pressure;BME280_temperature;BME280_humidity;BME280_pressure;Samples;Min_cycle;Max_cycle;Signal;HPM_P1;HPM_P2
2023/03/14 07:00:54;;;;;;;5.18;4.68;;;;;;;-145.79;95.98;76101.47;5272658;28;20940;-75
2023/03/14 07:03:25;;;;;;;5.00;3.85;;;;;;;-145.79;95.97;76105.69;5252960;28;20040;-75
2023/03/14 07:05:57;;;;;;;6.85;4.38;;;;;;;-145.79;96.31;76109.94;5248070;28;20030;-75
2023/03/14 07:08:28;;;;;;;4.72;3.80;;;;;;;-145.79;96.25;76116.28;5238271;28;20412;-77
2023/03/14 07:11:00;;;;;;;6.50;3.90;;;;;;;-145.79;96.52;76116.28;5237882;28;20421;-74
2023/03/14 07:13:31;;;;;;;5.63;3.83;;;;;;;-145.79;96.44;76109.94;5238410;28;20029;-74
2023/03/14 07:16:03;;;;;;;4.88;3.70;;;;;;;-145.79;96.63;76114.19;5238179;28;20109;-74
2023/03/14 07:18:34;;;;;;;4.72;3.78;;;;;;;-145.79;96.51;76112.06;5237665;28;20369;-74
2023/03/14 07:21:08;;;;;;;5.45;3.63;;;;;;;-145.79;96.50;76118.41;5247978;28;20028;-74
2023/03/14 07:23:40;;;;;;;4.18;3.20;;;;;;;-145.79;96.16;76135.38;5258850;28;20036;-74
2023/03/14 07:26:11;;;;;;;5.68;3.85;;;;;;;-145.79;96.20;76141.72;5258507;28;20033;-75
2023/03/14 07:28:42;;;;;;;8.00;4.03;;;;;;;-145.79;96.61;76162.91;5258110;28;20029;-75
2023/03/14 07:31:14;;;;;;;2.60;2.40;;;;;;;-145.79;94.77;76211.66;5251984;28;20026;-74
2023/03/14 07:33:45;;;;;;;1.95;1.58;;;;;;;-145.79;90.23;76281.56;5237256;28;20025;-74
2023/03/14 07:36:16;;;;;;;3.38;1.20;;;;;;;-145.79;90.14;76343.03;5237990;28;20025;-74
2023/03/14 07:38:51;;;;;;;5.25;3.67;;;;;;;-145.79;90.05;76366.34;5241649;28;20034;-74
2023/03/14 07:41:23;;;;;;;1.63;1.25;;;;;;;-145.79;89.68;76383.28;5238186;28;20026;-74
2023/03/14 07:43:54;;;;;;;1.80;1.35;;;;;;;-145.79;89.18;76415.06;5253560;28;20029;-74
2023/03/14 07:46:25;;;;;;;2.15;1.20;;;;;;;-145.79;88.04;76423.56;5237113;28;20091;-74
2023/03/14 07:48:57;;;;;;;0.90;0.90;;;;;;;-145.79;88.88;76438.38;5237775;28;20537;-74
2023/03/14 07:51:28;;;;;;;1.20;0.95;;;;;;;-145.79;89.24;76461.69;5237674;28;20097;-74
2023/03/14 07:53:59;;;;;;;2.80;2.08;;;;;;;-145.79;89.73;76476.53;5237889;28;20088;-75
2023/03/14 07:56:30;;;;;;;1.75;1.27;;;;;;;-145.79;89.89;76501.97;5258184;28;20034;-74
2023/03/14 07:59:03;;;;;;;4.10;1.50;;;;;;;-145.79;90.82;76504.09;5257050;28;20045;-77
2023/03/14 08:01:34;;;;;;;1.77;1.60;;;;;;;-145.79;90.99;76508.31;5246788;28;20101;-76
2023/03/14 08:04:06;;;;;;;3.13;2.17;;;;;;;-145.79;91.13;76529.50;5237471;28;20537;-76
2023/03/14 08:06:37;;;;;;;2.83;2.58;;;;;;;-145.79;91.31;76540.09;5237177;28;20061;-74
2023/03/14 08:09:08;;;;;;;3.00;2.65;;;;;;;-145.79;91.64;76542.22;5236652;28;20026;-74
2023/03/14 08:11:40;;;;;;;3.90;3.28;;;;;;;-145.79;92.15;76542.22;5233630;28;20029;-72
2023/03/14 08:14:11;;;;;;;5.15;2.88;;;;;;;-145.79;91.54;76538.00;5243379;28;20013;-72
2023/03/14 08:16:42;;;;;;;4.30;2.03;;;;;;;-145.79;91.26;76559.19;5244425;28;20547;-72
2023/03/14 08:19:14;;;;;;;1.83;1.52;;;;;;;-145.79;90.41;76569.78;5243768;28;20045;-73
2023/03/14 08:21:45;;;;;;;2.15;1.70;;;;;;;-145.79;90.13;76597.31;5243502;28;20028;-71
2023/03/14 08:24:16;;;;;;;1.50;1.40;;;;;;;-145.79;90.71;76612.16;5244258;28;20104;-72
2023/03/14 08:26:47;;;;;;;2.40;1.88;;;;;;;-145.79;90.74;76618.53;5243979;28;20026;-72
2023/03/14 08:29:19;;;;;;;3.08;1.33;;;;;;;-145.79;89.81;76622.75;5241982;28;20488;-72
2023/03/14 08:31:50;;;;;;;8.68;3.35;;;;;;;-145.79;90.45;76639.72;5243490;28;20087;-72
2023/03/14 08:34:22;;;;;;;1.60;1.50;;;;;;;-145.79;90.76;76629.13;5238515;28;20022;-75
2023/03/14 08:36:55;;;;;;;4.15;2.30;;;;;;;-145.79;90.46;76622.75;5242883;28;20370;-75
2023/03/14 08:39:26;;;;;;;2.60;1.70;;;;;;;-145.79;90.08;76635.47;5243548;28;20079;-68
2023/03/14 08:41:58;;;;;;;6.50;2.13;;;;;;;-145.79;89.55;76635.47;5243093;28;20477;-70
2023/03/14 08:44:29;;;;;;;4.13;1.85;;;;;;;-145.79;88.82;76637.59;5242474;28;20388;-68
2023/03/14 08:47:00;;;;;;;4.75;2.15;;;;;;;-145.79;89.06;76639.72;5242664;28;20056;-68
2023/03/14 08:49:31;;;;;;;4.10;2.67;;;;;;;-145.79;88.92;76654.53;5242778;28;20076;-68
2023/03/14 08:52:04;;;;;;;5.68;2.60;;;;;;;-145.79;88.98;76665.16;5241656;28;20029;-69
2023/03/14 08:54:35;;;;;;;3.08;2.10;;;;;;;-145.79;88.48;76669.38;5241913;28;20081;-68
2023/03/14 08:57:06;;;;;;;7.35;3.85;;;;;;;-145.79;87.73;76679.97;5242130;28;20037;-68
2023/03/14 08:59:38;;;;;;;6.47;2.85;;;;;;;-145.79;88.12;76675.75;5242798;28;20103;-68
2023/03/14 09:02:11;;;;;;;6.65;3.15;;;;;;;-145.79;88.27;76673.63;5242485;28;20029;-68
2023/03/14 09:04:42;;;;;;;6.63;4.07;;;;;;;-145.79;88.15;76667.25;5236966;28;20037;-68
2023/03/14 09:07:13;;;;;;;3.10;2.38;;;;;;;-145.79;87.76;76658.78;5222389;28;20093;-68
2023/03/14 09:09:45;;;;;;;3.63;2.00;;;;;;;-145.79;86.29;76665.16;5222332;28;20022;-69
2023/03/14 09:12:16;;;;;;;4.63;2.22;;;;;;;-145.79;86.54;76677.84;5221570;28;20395;-68
2023/03/14 09:14:48;;;;;;;4.03;2.17;;;;;;;-145.79;86.67;76707.53;5224006;28;20018;-69
2023/03/14 09:17:19;;;;;;;2.72;1.90;;;;;;;-145.79;87.28;76699.06;5241769;28;20158;-69
2023/03/14 09:19:50;;;;;;;4.45;2.30;;;;;;;-145.79;87.08;76692.69;5242525;28;20038;-69
2023/03/14 09:22:21;;;;;;;5.88;4.13;;;;;;;-145.79;87.39;76703.28;5241130;28;20025;-70
2023/03/14 09:24:53;;;;;;;9.27;5.90;;;;;;;-145.79;87.01;76707.53;5241411;28;20546;-69
2023/03/14 09:27:24;;;;;;;5.35;2.83;;;;;;;-145.79;86.84;76720.25;5242440;28;20022;-70
2023/03/14 09:29:55;;;;;;;2.50;1.90;;;;;;;-145.79;86.74;76749.91;5242539;28;20060;-68
2023/03/14 09:32:26;;;;;;;4.50;2.10;;;;;;;-145.79;88.20;76749.91;5241860;28;20026;-68
2023/03/14 09:34:58;;;;;;;4.57;2.10;;;;;;;-145.79;88.92;76758.38;5242649;28;20121;-69
2023/03/14 09:37:31;;;;;;;3.85;1.77;;;;;;;-145.79;89.34;76783.81;5239676;28;20038;-69
2023/03/14 09:40:09;;;;;;;5.38;2.15;;;;;;;-145.79;88.50;76819.84;5229433;28;20113;-68
2023/03/14 09:42:41;;;;;;;1.35;0.95;;;;;;;-145.79;86.77;76855.88;5241519;28;20033;-69
2023/03/14 09:45:23;;;;;;;1.17;1.08;;;;;;;-145.79;85.96;76851.63;5242336;28;20503;-69
2023/03/14 09:47:56;;;;;;;2.25;1.08;;;;;;;-145.79;84.91;76877.06;5242255;28;20025;-70
2023/03/14 09:50:37;;;;;;;2.13;0.93;;;;;;;-145.79;83.56;76910.97;5242626;28;20556;-68
2023/03/14 09:53:24;;;;;;;1.30;0.90;;;;;;;-145.79;81.29;76936.41;5241380;28;20029;-69
2023/03/14 09:55:57;;;;;;;2.45;1.10;;;;;;;-145.79;80.99;76961.84;5240543;28;20508;-69
2023/03/14 09:58:30;;;;;;;10.95;9.07;;;;;;;-145.79;80.02;76974.56;5241452;28;20152;-69
2023/03/14 10:01:01;;;;;;;1.30;1.00;;;;;;;-145.79;78.81;76997.88;5240924;28;20045;-69
2023/03/14 10:03:34;;;;;;;3.33;1.20;;;;;;;-145.79;77.74;76987.28;5241388;28;20021;-69
2023/03/14 10:06:11;;;;;;;1.80;1.00;;;;;;;-145.79;77.63;76983.03;5242145;28;20031;-69
2023/03/14 10:08:45;;;;;;;3.55;1.83;;;;;;;-145.79;77.02;77000.00;5240251;28;20035;-69
2023/03/14 10:11:17;;;;;;;3.15;1.33;;;;;;;-145.79;77.21;76995.75;5241710;28;20017;-69
2023/03/14 10:14:00;;;;;;;3.42;1.30;;;;;;;-145.79;77.10;77000.00;5240728;28;20473;-69
2023/03/14 10:16:35;;;;;;;1.83;1.10;;;;;;;-145.79;77.66;76978.81;5242060;28;20079;-69
2023/03/14 10:19:11;;;;;;;3.28;1.63;;;;;;;-145.79;78.27;76974.56;5240263;28;20025;-69
2023/03/14 10:21:42;;;;;;;;;;;;;;;-145.79;77.66;76957.59;5241169;28;20120;-69
2023/03/14 10:24:30;;;;;;;3.72;1.20;;;;;;;-145.79;75.80;77006.34;5241630;28;19996;-69
2023/03/14 10:27:04;;;;;;;4.28;1.17;;;;;;;-145.79;76.35;77029.66;5241226;28;20041;-69
2023/03/14 10:29:53;;;;;;;5.47;1.70;;;;;;;-145.79;74.88;77046.63;5239971;28;20020;-69
2023/03/14 10:32:45;;;;;;;3.80;1.23;;;;;;;-145.79;76.20;77031.78;5240832;28;20018;-69
2023/03/14 10:35:16;;;;;;;29.75;17.85;;;;;;;-145.79;76.29;77021.19;5240723;28;20029;-68
2023/03/14 10:37:49;;;;;;;3.92;1.98;;;;;;;-145.79;75.19;77033.91;5240323;28;20083;-68
2023/03/14 10:40:26;;;;;;;6.10;1.60;;;;;;;-145.79;70.89;77052.97;5240852;28;20088;-69
2023/03/14 10:42:59;;;;;;;5.28;2.20;;;;;;;-145.79;71.76;77042.38;5240383;28;20100;-68
2023/03/14 10:45:39;;;;;;;11.82;8.60;;;;;;;-145.79;73.03;77038.16;5240673;28;20029;-68
2023/03/14 10:48:22;;;;;;;28.80;23.23;;;;;;;-145.79;71.41;77031.78;5241248;28;20096;-69
2023/03/14 10:50:59;;;;;;;8.73;2.70;;;;;;;-145.79;71.41;77033.91;5240505;28;20021;-69
2023/03/14 10:53:43;;;;;;;10.68;2.72;;;;;;;-145.79;71.26;77063.59;5241343;28;20033;-69
2023/03/14 10:56:19;;;;;;;11.02;3.28;;;;;;;-145.79;72.12;77080.53;5240878;28;20030;-69
2023/03/14 10:58:55;;;;;;;9.38;2.70;;;;;;;-145.79;73.41;77144.13;5241784;28;20049;-69
2023/03/14 11:01:57;;;;;;;4.70;1.92;;;;;;;-145.79;75.04;77161.06;5240128;28;20026;-70
2023/03/14 11:04:38;;;;;;;9.55;5.20;;;;;;;-145.79;75.21;77180.16;5239720;28;20029;-69
2023/03/14 11:07:22;;;;;;;8.77;2.25;;;;;;;-145.79;75.31;77192.88;5241048;28;20061;-69
2023/03/14 11:10:11;;;;;;;7.25;2.42;;;;;;;-145.79;75.28;77178.03;5240482;28;20030;-68
2023/03/14 11:13:16;;;;;;;11.10;4.57;;;;;;;-145.79;74.26;77178.03;5240482;28;20388;-69
2023/03/14 11:16:13;;;;;;;9.52;2.88;;;;;;;-145.79;74.76;77192.88;5238601;28;20036;-74
2023/03/14 11:19:03;;;;;;;48.28;27.60;;;;;;;-145.79;76.06;77199.22;5236286;28;20034;-75
2023/03/14 11:21:43;;;;;;;6.30;2.67;;;;;;;-145.79;74.98;77201.34;5221132;28;20117;-70
2023/03/14 11:24:56;;;;;;;10.45;3.65;;;;;;;-145.79;75.39;77209.81;5244936;28;20025;-69
2023/03/14 11:27:36;;;;;;;14.15;3.13;;;;;;;-145.79;74.66;77207.72;5241121;28;20026;-69
2023/03/14 11:30:31;;;;;;;7.93;2.40;;;;;;;-145.79;74.98;77195.00;5240696;28;20108;-69
2023/03/14 11:33:13;;;;;;;11.40;5.50;;;;;;;-145.79;74.86;77209.81;5240060;28;20029;-70
2023/03/14 11:35:51;;;;;;;12.15;3.53;;;;;;;-145.79;75.86;77207.72;5240920;28;20358;-69
2023/03/14 11:38:46;;;;;;;16.30;5.55;;;;;;;-145.79;78.05;77241.63;5240156;28;20473;-69
2023/03/14 11:41:45;;;;;;;10.70;3.70;;;;;;;-145.79;79.30;77254.34;5240553;28;20124;-69
2023/03/14 11:44:24;;;;;;;7.70;2.10;;;;;;;-145.79;76.45;77296.72;5238549;28;20366;-68
2023/03/14 11:47:07;;;;;;;7.70;3.47;;;;;;;-145.79;78.48;77305.22;5221767;28;20034;-69
2023/03/14 11:49:48;;;;;;;7.90;3.35;;;;;;;-145.79;76.64;77313.69;5223428;28;20098;-68
2023/03/14 11:52:28;;;;;;;11.55;3.53;;;;;;;-145.79;76.83;77298.84;5242371;28;20147;-68
2023/03/14 11:55:21;;;;;;;8.57;2.55;;;;;;;-145.79;74.76;77281.91;5244511;28;20025;-68
2023/03/14 11:57:58;;;;;;;12.90;5.20;;;;;;;-145.79;73.56;77305.22;5241452;28;20040;-68
2023/03/14 12:00:30;;;;;;;11.68;3.60;;;;;;;-145.79;74.02;77305.22;5242696;28;20188;-68
2023/03/14 12:03:31;;;;;;;10.40;2.88;;;;;;;-145.79;74.84;77292.50;5244195;28;20029;-68
2023/03/14 12:06:25;;;;;;;10.88;2.90;;;;;;;-145.79;74.85;77313.69;5243100;28;20380;-68
2023/03/14 12:09:05;;;;;;;13.52;4.45;;;;;;;-145.79;76.44;77305.22;5243994;28;20495;-68
2023/03/14 12:11:49;;;;;;;15.65;3.88;;;;;;;-145.79;77.35;77298.84;5223682;28;20050;-68
2023/03/14 12:14:24;;;;;;;16.58;4.10;;;;;;;-145.79;77.15;77305.22;5228819;28;20033;-68
2023/03/14 12:17:06;;;;;;;;;;;;;;;-145.79;74.49;77303.09;5240525;28;20029;-68
2023/03/14 12:19:39;;;;;;;13.38;3.42;;;;;;;-145.79;75.51;77300.97;5243358;28;20340;-68
2023/03/14 12:22:22;;;;;;;10.48;3.15;;;;;;;-145.79;72.89;77326.41;5240748;28;20105;-68
2023/03/14 12:25:21;;;;;;;13.57;3.55;;;;;;;-145.79;70.88;77322.16;5222759;28;20025;-68
2023/03/14 12:27:56;;;;;;;11.57;3.35;;;;;;;-145.79;68.07;77315.81;5239305;28;20041;-68
2023/03/14 12:30:47;;;;;;;10.65;3.40;;;;;;;-145.79;67.96;77294.59;5243780;28;20059;-68
2023/03/14 12:33:29;;;;;;;16.30;5.13;;;;;;;-145.79;68.37;77258.56;5241933;28;20041;-69
2023/03/14 12:36:04;;;;;;;20.88;4.38;;;;;;;-145.79;66.30;77262.81;5242305;28;20044;-69
2023/03/14 12:38:35;;;;;;;12.53;3.83;;;;;;;-145.79;67.58;77254.34;5242387;28;20506;-69
2023/03/14 12:41:44;;;;;;;18.75;4.90;;;;;;;-145.79;66.93;77220.44;5242077;28;20041;-69
2023/03/14 12:44:40;;;;;;;15.40;3.70;;;;;;;-145.79;66.56;77182.28;5242444;28;20033;-69
2023/03/14 12:47:17;;;;;;;11.10;4.40;;;;;;;-145.79;63.74;77224.66;5242649;28;20087;-68
2023/03/14 12:49:53;;;;;;;13.18;5.07;;;;;;;-145.79;63.18;77228.91;5242666;28;20030;-69
2023/03/14 12:52:42;;;;;;;14.20;4.15;;;;;;;-145.79;63.17;77231.03;5243332;28;20017;-69
2023/03/14 12:55:21;;;;;;;13.77;4.93;;;;;;;-145.79;64.21;77231.03;5242521;28;20018;-70
2023/03/14 12:58:12;;;;;;;17.20;6.25;;;;;;;-145.79;61.27;77245.84;5243329;28;20106;-69
2023/03/14 13:00:56;;;;;;;15.98;4.05;;;;;;;-145.79;61.87;77226.78;5241906;28;20374;-69
2023/03/14 13:03:53;;;;;;;17.52;5.40;;;;;;;-145.79;62.22;77195.00;5242247;28;20108;-69
2023/03/14 13:06:47;;;;;;;17.83;5.30;;;;;;;-145.79;60.85;77169.56;5243132;28;20037;-69
2023/03/14 13:09:32;;;;;;;13.48;3.28;;;;;;;-145.79;54.18;77186.50;5241943;28;20021;-69
2023/03/14 13:12:10;;;;;;;13.23;3.58;;;;;;;-145.79;49.40;77175.91;5243094;28;20033;-69
2023/03/14 13:14:49;;;;;;;25.77;19.17;;;;;;;-145.79;47.52;77173.78;5241912;28;20033;-74
2023/03/14 13:17:30;;;;;;;12.07;2.33;;;;;;;-145.79;44.77;77173.78;5241544;28;20036;-71
2023/03/14 13:20:21;;;;;;;7.50;2.40;;;;;;;-145.79;45.39;77156.84;5242182;28;20036;-68
2023/03/14 13:22:53;;;;;;;23.30;18.38;;;;;;;-145.79;47.86;77127.16;5241871;28;20107;-69
2023/03/14 13:25:29;;;;;;;15.52;9.45;;;;;;;-145.79;46.87;77110.22;5241584;28;20026;-72
2023/03/14 13:28:01;;;;;;;8.35;2.58;;;;;;;-145.79;47.59;77137.75;5242276;28;20029;-72
2023/03/14 13:30:40;;;;;;;9.98;3.30;;;;;;;-145.79;42.89;77156.84;5241482;28;20022;-72
2023/03/14 13:33:21;;;;;;;7.47;3.13;;;;;;;-145.79;43.23;77152.59;5242418;28;20021;-72
2023/03/14 13:36:05;;;;;;;9.30;2.33;;;;;;;-145.79;41.74;77186.50;5241700;28;20405;-72
2023/03/14 13:38:36;;;;;;;11.07;7.38;;;;;;;-145.79;43.34;77169.56;5241068;28;20049;-71
2023/03/14 13:41:08;;;;;;;6.10;2.47;;;;;;;-145.79;43.67;77144.13;5241622;28;20060;-71
2023/03/14 13:43:44;;;;;;;8.75;2.75;;;;;;;-145.79;43.73;77127.16;5242611;28;20049;-71
2023/03/14 13:46:25;;;;;;;6.60;2.22;;;;;;;-145.79;42.98;77152.59;5241431;28;20037;-71
2023/03/14 13:49:01;;;;;;;8.30;2.50;;;;;;;-145.79;42.88;77154.72;5242218;28;20033;-71
2023/03/14 13:51:33;;;;;;;8.38;2.65;;;;;;;-145.79;43.36;77133.53;5240583;28;20368;-71
2023/03/14 13:54:14;;;;;;;69.95;56.22;;;;;;;-145.79;41.37;77131.41;5241743;28;20025;-71
2023/03/14 13:56:46;;;;;;;7.30;3.13;;;;;;;-145.79;46.95;77091.13;5241641;28;20026;-71
2023/03/14 13:59:34;;;;;;;8.88;2.95;;;;;;;-145.79;44.66;77103.84;5240762;28;20037;-71
2023/03/14 14:02:14;;;;;;;7.10;2.40;;;;;;;-145.79;41.42;77120.81;5242207;28;20025;-70
2023/03/14 14:04:47;;;;;;;9.27;2.40;;;;;;;-145.79;39.70;77131.41;5242052;28;20049;-70
2023/03/14 14:07:19;;;;;;;5.72;2.50;;;;;;;-145.79;41.86;77158.97;5241085;28;20047;-70
2023/03/14 14:09:54;;;;;;;10.20;3.00;;;;;;;-145.79;41.69;77178.03;5240651;28;20029;-70
2023/03/14 14:12:32;;;;;;;8.30;2.80;;;;;;;-145.79;43.36;77199.22;5240861;28;20117;-69
2023/03/14 14:15:07;;;;;;;8.10;2.50;;;;;;;-145.79;42.42;77216.19;5240870;28;20048;-70
2023/03/14 14:17:54;;;;;;;7.20;2.83;;;;;;;-145.79;41.12;77262.81;5241380;28;20105;-70
2023/03/14 14:20:56;;;;;;;13.32;3.70;;;;;;;-145.79;41.76;77245.84;5240362;28;20029;-72
2023/03/14 14:23:29;;;;;;;5.43;2.08;;;;;;;-145.79;41.18;77300.97;5240828;28;20393;-71
2023/03/14 14:26:00;;;;;;;5.47;2.35;;;;;;;-145.79;41.92;77324.28;5240928;28;20029;-71
2023/03/14 14:28:34;;;;;;;7.15;2.38;;;;;;;-145.79;41.48;77360.31;5240915;28;20104;-71
2023/03/14 14:31:26;;;;;;;6.22;2.25;;;;;;;-145.79;42.41;77368.78;5241336;28;20036;-71
2023/03/14 14:33:59;;;;;;;8.85;2.95;;;;;;;-145.79;43.38;77385.75;5239993;28;20029;-71
2023/03/14 14:36:40;;;;;;;7.00;2.30;;;;;;;-145.79;42.49;77379.41;5241022;28;20025;-71
2023/03/14 14:39:25;;;;;;;8.73;2.50;;;;;;;-145.79;41.95;77347.59;5238783;28;20032;-70
2023/03/14 14:41:57;;;;;;;7.32;2.25;;;;;;;-145.79;41.08;77385.75;5221304;28;20112;-69
2023/03/14 14:44:37;;;;;;;9.13;3.42;;;;;;;-145.79;41.98;77377.28;5240728;28;20441;-69
2023/03/14 14:47:13;;;;;;;11.57;2.58;;;;;;;-145.79;46.23;77360.31;5241005;28;20061;-68
2023/03/14 14:49:47;;;;;;;7.45;2.45;;;;;;;-145.79;41.85;77396.34;5220441;28;20547;-67
2023/03/14 14:52:33;;;;;;;5.13;2.28;;;;;;;-145.79;41.64;77392.13;5224513;28;20116;-68
2023/03/14 14:55:19;;;;;;;9.30;2.33;;;;;;;-145.79;41.06;77400.59;5232584;28;20361;-68
2023/03/14 14:57:53;;;;;;;12.98;4.90;;;;;;;-145.79;41.75;77402.72;5236978;28;20059;-68
2023/03/14 15:00:27;;;;;;;9.68;2.35;;;;;;;-145.79;40.42;77447.22;5238979;28;20046;-69
2023/03/14 15:02:59;;;;;;;8.10;2.35;;;;;;;-145.79;40.90;77493.84;5238493;28;20537;-69
2023/03/14 15:05:35;;;;;;;5.07;1.98;;;;;;;-145.79;40.90;77529.88;5239706;28;20421;-68
2023/03/14 15:08:10;;;;;;;7.80;2.38;;;;;;;-145.79;40.98;77538.38;5240343;28;20025;-68
2023/03/14 15:10:42;;;;;;;10.98;3.55;;;;;;;-145.79;41.90;77555.31;5240136;28;20052;-69
2023/03/14 15:13:13;;;;;;;7.55;2.20;;;;;;;-145.79;41.85;77559.56;5240860;28;20071;-69
2023/03/14 15:15:46;;;;;;;30.90;21.15;;;;;;;-145.79;42.77;77546.84;5240591;28;20383;-70
2023/03/14 15:18:18;;;;;;;8.70;2.50;;;;;;;-145.79;42.92;77563.81;5238572;28;20388;-69
2023/03/14 15:20:50;;;;;;;7.57;2.15;;;;;;;-145.79;41.84;77574.41;5241578;28;20025;-68
2023/03/14 15:23:22;;;;;;;9.75;2.45;;;;;;;-145.79;43.30;77555.31;5244311;28;20075;-69
2023/03/14 15:25:53;;;;;;;5.32;2.75;;;;;;;-145.79;42.89;77593.47;5244219;28;20021;-68
2023/03/14 15:28:26;;;;;;;5.95;2.15;;;;;;;-145.79;43.51;77599.84;5244696;28;20029;-69
2023/03/14 15:30:58;;;;;;;7.07;2.33;;;;;;;-145.79;43.06;77618.91;5243919;28;20085;-69
2023/03/14 15:33:30;;;;;;;8.43;2.53;;;;;;;-145.79;42.83;77644.34;5244703;28;20049;-69
2023/03/14 15:36:01;;;;;;;6.70;2.20;;;;;;;-145.79;42.57;77667.69;5244093;28;20428;-68
2023/03/14 15:38:33;;;;;;;7.43;2.63;;;;;;;-145.79;42.29;77671.91;5244892;28;20025;-69
2023/03/14 15:41:04;;;;;;;5.75;2.33;;;;;;;-145.79;41.75;77674.03;5243267;28;20025;-70
2023/03/14 15:43:35;;;;;;;6.07;2.30;;;;;;;-145.79;43.31;77661.31;5242909;28;20035;-68
2023/03/14 15:46:11;;;;;;;7.05;2.70;;;;;;;-145.79;45.46;77644.34;5239929;28;20485;-69
2023/03/14 15:48:43;;;;;;;8.20;3.33;;;;;;;-145.79;43.90;77644.34;5222008;28;20109;-68
2023/03/14 15:51:15;;;;;;;6.25;2.63;;;;;;;-145.79;44.92;77633.75;5233859;28;20028;-67
2023/03/14 15:53:47;;;;;;;8.00;2.63;;;;;;;-145.79;45.12;77618.91;5244174;28;20025;-67
2023/03/14 15:56:23;;;;;;;7.72;2.55;;;;;;;-145.79;47.71;77633.75;5244213;28;20087;-67
2023/03/14 15:58:55;;;;;;;7.38;2.15;;;;;;;-145.79;44.39;77663.44;5243129;28;20050;-67
2023/03/14 16:01:27;;;;;;;8.70;2.65;;;;;;;-145.79;44.46;77684.63;5243291;28;20575;-68
2023/03/14 16:03:58;;;;;;;7.38;2.65;;;;;;;-145.79;44.42;77703.72;5241969;28;20030;-69
2023/03/14 16:06:30;;;;;;;9.13;2.85;;;;;;;-145.79;45.39;77676.16;5241240;28;20033;-69
2023/03/14 16:09:04;;;;;;;8.50;2.83;;;;;;;-145.79;44.97;77705.84;5243527;28;20413;-68
2023/03/14 16:11:36;;;;;;;7.88;2.90;;;;;;;-145.79;44.37;77724.91;5237553;28;20120;-67
2023/03/14 16:14:09;;;;;;;6.70;2.60;;;;;;;-145.79;43.26;77744.00;5242538;28;20116;-68
2023/03/14 16:16:40;;;;;;;9.65;5.40;;;;;;;-145.79;44.54;77750.34;5242106;28;20038;-68
2023/03/14 16:19:11;;;;;;;8.70;2.80;;;;;;;-145.79;43.81;77754.59;5243271;28;20030;-67
2023/03/14 16:21:42;;;;;;;5.85;2.55;;;;;;;-145.79;43.75;77769.44;5243259;28;20087;-69
2023/03/14 16:24:14;;;;;;;5.38;3.55;;;;;;;-145.79;41.97;77796.97;5242968;28;20041;-69
2023/03/14 16:26:47;;;;;;;6.88;3.03;;;;;;;-145.79;43.42;77767.31;5242153;28;20449;-70
2023/03/14 16:29:18;;;;;;;9.63;3.20;;;;;;;-145.79;44.45;77771.53;5239649;28;20199;-70
